Main page
METAR-TAF:

METAR-TAF

Airports :

Netaji Subhas Chandra Bose International Airport

Kolkata, India

latitude: 22-39N, longitude: 088-27E, elevation: 4 m

Current weather observation

The report was made 35 minutes ago, at 20:00 UTC
Calm wind
Temperature 18°C
Humidity 94%
Pressure 1009 hPa
Visibility: 0800 m
Few clouds at a height of 2000 ft
Scattered clouds at a height of 10000 ft
Shallow fog

METAR: VECC 222000Z 00000KT 0800 R01R/1300 MIFG FEW020 SCT100 18/17 Q1009 BECMG 0600 MIFG

Time: 02:05 (20:35 UTC)

Forecast

The report was made 3 hours and 35 minutes ago, at 17:00 UTC
Forecast valid from 22 at 18 UTC to 23 at 03 UTC
Wind kt from the North
Visibility: 2000 m
Scattered clouds at a height of 2000 ft
Scattered clouds at a height of 10000 ft
mist
Becoming
from 22 at 21 UTC to 22 at 23 UTC
Visibility: 1200 m
light rain, mist
Becoming
from 23 at 01 UTC to 23 at 03 UTC
Visibility: 0500 m
fog

TAF: VECC 221700Z 2218/2303 00000KT 2000 BR SCT020 SCT100 BECMG 2221/2223 1200 -RA BR BECMG 2301/2303 0500 FG

Weather observations and forecasts of more than 4000 airports (METAR and TAF reports).

The available stations are represented by yellow and red dots on the map.

Hover mouse over dot to see the name of the station.

Then click to see weather observations and forecasts.

To change the map : click on the green buttons with a black cross to zoom in, on the green button with a dash to zoom out, or on the green arrows for adjacent maps.


METAR-TAF: